createdAt,value
2017-05-17T00:02:13.719Z,101858
2017-05-17T00:04:42.674Z,101848
2017-05-17T00:07:12.310Z,101847
2017-05-17T00:09:41.267Z,101847
2017-05-17T00:12:10.225Z,101851
2017-05-17T00:14:40.321Z,101841
2017-05-17T00:17:09.249Z,101846
2017-05-17T00:19:38.248Z,101838
2017-05-17T00:22:07.547Z,101841
2017-05-17T00:24:36.495Z,101839
2017-05-17T00:27:05.479Z,101837
2017-05-17T00:29:34.802Z,101833
2017-05-17T00:32:04.483Z,101825
2017-05-17T00:34:33.436Z,101823
2017-05-17T00:37:20.406Z,101816
2017-05-17T00:40:07.198Z,101827
2017-05-17T00:42:54.390Z,101824
2017-05-17T00:45:41.335Z,101822
2017-05-17T00:48:28.568Z,101825
2017-05-17T00:51:15.316Z,101820
2017-05-17T00:53:44.631Z,101820
2017-05-17T00:56:13.566Z,101815
2017-05-17T00:58:43.251Z,101816
2017-05-17T01:01:12.574Z,101811
2017-05-17T01:03:42.238Z,101810
2017-05-17T01:06:11.201Z,101808
2017-05-17T01:08:40.567Z,101811
2017-05-17T01:11:09.520Z,101805
2017-05-17T01:13:38.475Z,101810
2017-05-17T01:16:07.852Z,101807
2017-05-17T01:18:36.818Z,101809
2017-05-17T01:21:05.761Z,101802
2017-05-17T01:23:35.136Z,101795
2017-05-17T01:26:04.814Z,101787
2017-05-17T01:28:33.746Z,101792
2017-05-17T01:31:03.760Z,101787
2017-05-17T01:33:33.487Z,101786
2017-05-17T01:36:02.437Z,101779
2017-05-17T01:38:31.748Z,101784
2017-05-17T01:41:00.689Z,101781
2017-05-17T01:43:29.646Z,101788
2017-05-17T01:45:59.741Z,101776
2017-05-17T01:48:28.691Z,101779
2017-05-17T01:50:57.666Z,101778
2017-05-17T01:53:27.046Z,101774
2017-05-17T01:55:56.748Z,101775
2017-05-17T01:58:26.878Z,101771
2017-05-17T02:00:56.659Z,101772
2017-05-17T02:03:25.600Z,101772
2017-05-17T02:05:54.894Z,101777
2017-05-17T02:08:23.960Z,101768
2017-05-17T02:10:53.633Z,101769
2017-05-17T02:13:22.954Z,101764
2017-05-17T02:15:51.906Z,101764
2017-05-17T02:18:20.874Z,101764
2017-05-17T02:20:50.115Z,101765
2017-05-17T02:23:19.051Z,101755
2017-05-17T02:25:48.760Z,101765
2017-05-17T02:28:18.862Z,101771
2017-05-17T02:30:47.807Z,101763
2017-05-17T02:33:16.758Z,101759
2017-05-17T02:35:46.792Z,101767
2017-05-17T02:38:15.767Z,101760
2017-05-17T02:40:45.439Z,101758
2017-05-17T02:43:14.786Z,101757
2017-05-17T02:45:43.733Z,101756
2017-05-17T02:48:12.787Z,101762
2017-05-17T02:50:42.129Z,101751
2017-05-17T02:53:11.074Z,101749
2017-05-17T02:55:40.010Z,101749
2017-05-17T02:58:09.337Z,101746
2017-05-17T03:00:39.034Z,101743
2017-05-17T03:03:07.978Z,101741
2017-05-17T03:05:37.259Z,101737
2017-05-17T03:08:06.214Z,101739
2017-05-17T03:10:35.894Z,101733
2017-05-17T03:13:05.116Z,101727
2017-05-17T03:15:34.068Z,101736
2017-05-17T03:18:03.019Z,101730
2017-05-17T03:20:33.124Z,101730
2017-05-17T03:23:02.050Z,101728
2017-05-17T03:25:30.976Z,101730
2017-05-17T03:27:59.939Z,101728
2017-05-17T03:30:28.887Z,101725
2017-05-17T03:32:58.158Z,101724
2017-05-17T03:35:27.121Z,101731
2017-05-17T03:37:56.079Z,101724
2017-05-17T03:40:26.033Z,101727
2017-05-17T03:42:54.966Z,101727
2017-05-17T03:45:23.916Z,101726
2017-05-17T03:47:53.266Z,101726
2017-05-17T03:50:22.205Z,101721
2017-05-17T03:52:51.148Z,101725
2017-05-17T03:55:20.501Z,101726
2017-05-17T03:57:49.450Z,101723
2017-05-17T04:00:19.133Z,101722
2017-05-17T04:02:48.400Z,101711
2017-05-17T04:05:17.358Z,101715
2017-05-17T04:07:47.032Z,101724
2017-05-17T04:10:16.342Z,101720
2017-05-17T04:12:45.282Z,101727
2017-05-17T04:15:14.226Z,101723
2017-05-17T04:17:43.511Z,101721
2017-05-17T04:20:12.458Z,101720
2017-05-17T04:22:41.405Z,101716
2017-05-17T04:25:10.815Z,101716
2017-05-17T04:27:40.486Z,101716
2017-05-17T04:30:09.411Z,101717
2017-05-17T04:32:39.441Z,101724
2017-05-17T04:35:09.145Z,101725
2017-05-17T04:37:38.844Z,101723
2017-05-17T04:40:08.871Z,101718
2017-05-17T04:42:38.543Z,101718
2017-05-17T04:45:07.548Z,101722
2017-05-17T04:47:36.979Z,101716
2017-05-17T04:50:06.663Z,101714
2017-05-17T04:52:35.590Z,101709
2017-05-17T04:55:05.563Z,101710
2017-05-17T04:57:34.499Z,101703
2017-05-17T05:00:03.529Z,101709
2017-05-17T05:02:32.931Z,101709
2017-05-17T05:05:01.911Z,101711
2017-05-17T05:07:30.878Z,101715
2017-05-17T05:10:00.146Z,101716
2017-05-17T05:12:29.111Z,101704
2017-05-17T05:14:58.113Z,101705
2017-05-17T05:17:27.424Z,101704
2017-05-17T05:19:56.389Z,101702
2017-05-17T05:22:25.354Z,101712
2017-05-17T05:24:54.702Z,101704
2017-05-17T05:27:23.650Z,101715
2017-05-17T05:29:52.600Z,101716
2017-05-17T05:32:21.888Z,101713
2017-05-17T05:34:50.822Z,101713
2017-05-17T05:37:19.748Z,101715
2017-05-17T05:39:48.994Z,101711
2017-05-17T05:42:17.954Z,101706
2017-05-17T05:44:46.894Z,101709
2017-05-17T05:47:16.129Z,101707
2017-05-17T05:49:45.087Z,101719
2017-05-17T05:52:14.035Z,101716
2017-05-17T05:54:44.037Z,101715
2017-05-17T05:57:12.973Z,101722
2017-05-17T05:59:41.898Z,101718
2017-05-17T06:02:11.130Z,101711
2017-05-17T06:04:40.075Z,101719
2017-05-17T06:07:09.023Z,101717
2017-05-17T06:09:38.912Z,101706
2017-05-17T06:12:07.892Z,101703
2017-05-17T06:14:36.819Z,101705
2017-05-17T06:17:06.798Z,101705
2017-05-17T06:19:35.880Z,101704
2017-05-17T06:22:04.866Z,101696
2017-05-17T06:24:34.217Z,101689
2017-05-17T06:27:03.175Z,101692
2017-05-17T06:29:32.129Z,101692
2017-05-17T06:32:01.482Z,101687
2017-05-17T06:34:30.445Z,101689
2017-05-17T06:36:59.393Z,101691
2017-05-17T06:39:28.768Z,101682
2017-05-17T06:41:57.715Z,101688
2017-05-17T06:44:26.655Z,101683
2017-05-17T06:46:55.954Z,101679
2017-05-17T06:49:25.674Z,101682
2017-05-17T06:51:55.703Z,101677
2017-05-17T06:54:24.676Z,101693
2017-05-17T06:56:54.368Z,101703
2017-05-17T06:59:23.690Z,101697
2017-05-17T07:01:53.422Z,101686
2017-05-17T07:04:22.695Z,101685
2017-05-17T07:06:52.871Z,101689
2017-05-17T07:09:21.822Z,101683
2017-05-17T07:11:50.750Z,101681
2017-05-17T07:14:20.020Z,101680
2017-05-17T07:16:48.955Z,101680
2017-05-17T07:19:17.907Z,101680
2017-05-17T07:21:47.271Z,101680
2017-05-17T07:24:16.971Z,101684
2017-05-17T07:26:45.909Z,101675
2017-05-17T07:29:15.258Z,101672
2017-05-17T07:31:44.199Z,101673
2017-05-17T07:34:13.141Z,101672
2017-05-17T07:36:42.431Z,101675
2017-05-17T07:39:11.460Z,101670
2017-05-17T07:41:40.412Z,101669
2017-05-17T07:44:09.827Z,101678
2017-05-17T07:46:38.770Z,101669
2017-05-17T07:49:07.739Z,101674
2017-05-17T07:51:37.009Z,101665
2017-05-17T07:54:05.998Z,101666
2017-05-17T07:56:34.954Z,101666
2017-05-17T07:59:04.219Z,101667
2017-05-17T08:01:33.244Z,101668
2017-05-17T08:04:02.246Z,101660
2017-05-17T08:06:31.924Z,101657
2017-05-17T08:09:00.874Z,101645
2017-05-17T08:11:29.844Z,101660
2017-05-17T08:13:59.127Z,101653
2017-05-17T08:16:28.091Z,101658
2017-05-17T08:18:57.038Z,101651
2017-05-17T08:21:26.299Z,101647
2017-05-17T08:23:55.240Z,101638
2017-05-17T08:26:25.051Z,101633
2017-05-17T08:28:54.361Z,101639
2017-05-17T08:31:24.059Z,101643
2017-05-17T08:33:53.778Z,101632
2017-05-17T08:36:23.070Z,101630
2017-05-17T08:38:52.756Z,101631
2017-05-17T08:41:21.694Z,101633
2017-05-17T08:43:50.974Z,101627
2017-05-17T08:46:20.727Z,101616
2017-05-17T08:48:49.682Z,101620
2017-05-17T08:51:19.676Z,101615
2017-05-17T08:53:48.667Z,101608
2017-05-17T08:56:17.617Z,101606
2017-05-17T08:58:46.925Z,101608
2017-05-17T09:01:15.870Z,101606
2017-05-17T09:03:45.644Z,101603
2017-05-17T09:06:14.908Z,101600
2017-05-17T09:08:43.926Z,101594
2017-05-17T09:11:12.937Z,101595
2017-05-17T09:13:42.218Z,101593
2017-05-17T09:16:11.222Z,101587
2017-05-17T09:18:40.183Z,101576
2017-05-17T09:21:09.530Z,101573
2017-05-17T09:23:38.454Z,101578
2017-05-17T09:26:07.385Z,101563
2017-05-17T09:28:36.722Z,101566
2017-05-17T09:31:06.432Z,101562
2017-05-17T09:33:36.423Z,101562
2017-05-17T09:36:05.396Z,101557
2017-05-17T09:38:34.391Z,101562
2017-05-17T09:41:03.747Z,101557
2017-05-17T09:43:32.836Z,101555
2017-05-17T09:46:02.011Z,101552
2017-05-17T09:48:31.414Z,101543
2017-05-17T09:51:00.494Z,101546
2017-05-17T09:53:29.450Z,101543
2017-05-17T09:55:58.704Z,101545
2017-05-17T09:58:28.443Z,101539
2017-05-17T10:00:57.379Z,101538
2017-05-17T10:03:26.693Z,101539
2017-05-17T10:05:56.391Z,101535
2017-05-17T10:08:25.359Z,101528
2017-05-17T10:10:54.682Z,101531
2017-05-17T10:13:23.655Z,101530
2017-05-17T10:15:52.739Z,101522
2017-05-17T10:18:22.080Z,101514
2017-05-17T10:20:51.075Z,101517
2017-05-17T10:23:20.809Z,101514
2017-05-17T10:25:50.085Z,101506
2017-05-17T10:28:19.766Z,101503
2017-05-17T10:30:48.705Z,101500
2017-05-17T10:33:18.015Z,101488
2017-05-17T10:35:46.972Z,101486
2017-05-17T10:38:16.692Z,101490
2017-05-17T10:40:46.790Z,101485
2017-05-17T10:43:16.490Z,101475
2017-05-17T10:45:45.428Z,101476
2017-05-17T10:48:14.744Z,101469
2017-05-17T10:50:43.676Z,101456
2017-05-17T10:53:12.611Z,101450
2017-05-17T10:55:41.984Z,101458
2017-05-17T10:58:11.659Z,101454
2017-05-17T11:00:40.601Z,101455
2017-05-17T11:03:09.878Z,101448
2017-05-17T11:05:38.820Z,101447
2017-05-17T11:08:07.774Z,101441
2017-05-17T11:10:37.818Z,101442
2017-05-17T11:13:06.750Z,101436
2017-05-17T11:15:35.696Z,101434
2017-05-17T11:18:05.022Z,101432
2017-05-17T11:20:34.027Z,101414
2017-05-17T11:23:02.987Z,101421
2017-05-17T11:25:32.463Z,101417
2017-05-17T11:28:02.245Z,101412
2017-05-17T11:30:31.205Z,101412
2017-05-17T11:33:00.447Z,101409
2017-05-17T11:35:29.887Z,101394
2017-05-17T11:37:59.185Z,101392
2017-05-17T11:40:28.482Z,101397
2017-05-17T11:42:57.424Z,101389
2017-05-17T11:45:26.381Z,101386
2017-05-17T11:47:55.691Z,101381
2017-05-17T11:50:24.632Z,101378
2017-05-17T11:52:54.278Z,101374
2017-05-17T11:55:23.720Z,101379
2017-05-17T11:57:52.711Z,101373
2017-05-17T12:00:21.646Z,101373
2017-05-17T12:02:50.939Z,101369
2017-05-17T12:05:19.953Z,101368
2017-05-17T12:07:48.941Z,101371
2017-05-17T12:10:18.296Z,101368
2017-05-17T12:12:47.344Z,101360
2017-05-17T12:15:16.348Z,101364
2017-05-17T12:17:45.706Z,101361
2017-05-17T12:20:14.682Z,101351
2017-05-17T12:22:43.623Z,101351
2017-05-17T12:25:12.959Z,101347
2017-05-17T12:27:41.928Z,101343
2017-05-17T12:30:10.866Z,101348
2017-05-17T12:32:40.954Z,101345
2017-05-17T12:35:09.899Z,101341
2017-05-17T12:37:38.842Z,101340
2017-05-17T12:40:08.264Z,101327
2017-05-17T12:42:37.265Z,101338
2017-05-17T12:45:06.227Z,101326
2017-05-17T12:47:35.512Z,101320
2017-05-17T12:50:04.467Z,101312
2017-05-17T12:52:33.440Z,101317
2017-05-17T12:55:02.836Z,101307
2017-05-17T12:57:32.516Z,101312
2017-05-17T13:00:01.468Z,101308
2017-05-17T13:02:30.828Z,101295
2017-05-17T13:05:00.542Z,101291
2017-05-17T13:07:30.636Z,101293
2017-05-17T13:09:59.589Z,101278
2017-05-17T13:12:28.572Z,101286
2017-05-17T13:14:57.928Z,101278
2017-05-17T13:17:26.958Z,101276
2017-05-17T13:19:55.928Z,101269
2017-05-17T13:22:26.322Z,101264
2017-05-17T13:24:55.264Z,101263
2017-05-17T13:27:24.209Z,101257
2017-05-17T13:29:53.557Z,101257
2017-05-17T13:32:22.497Z,101248
2017-05-17T13:34:51.447Z,101247
2017-05-17T13:37:20.798Z,101231
2017-05-17T13:39:49.761Z,101240
2017-05-17T13:42:18.719Z,101238
2017-05-17T13:44:48.112Z,101234
2017-05-17T13:47:17.075Z,101228
2017-05-17T13:49:46.804Z,101224
2017-05-17T13:52:16.847Z,101235
2017-05-17T13:54:45.802Z,101219
2017-05-17T13:57:15.491Z,101224
2017-05-17T13:59:44.917Z,101222
2017-05-17T14:02:14.611Z,101217
2017-05-17T14:04:43.572Z,101213
2017-05-17T14:07:12.871Z,101211
2017-05-17T14:09:41.824Z,101204
2017-05-17T14:12:10.779Z,101204
2017-05-17T14:14:40.190Z,101199
2017-05-17T14:17:09.863Z,101190
2017-05-17T14:19:38.931Z,101189
2017-05-17T14:22:08.479Z,101185
2017-05-17T14:24:37.421Z,101181
2017-05-17T14:27:06.397Z,101181
2017-05-17T14:29:36.444Z,101174
2017-05-17T14:32:05.409Z,101168
2017-05-17T14:34:34.446Z,101163
2017-05-17T14:37:03.788Z,101159
2017-05-17T14:39:33.466Z,101157
2017-05-17T14:42:02.463Z,101159
2017-05-17T14:44:31.783Z,101152
2017-05-17T14:47:01.470Z,101149
2017-05-17T14:49:30.535Z,101150
2017-05-17T14:51:59.872Z,101146
2017-05-17T14:54:28.887Z,101134
2017-05-17T14:56:58.623Z,101138
2017-05-17T14:59:27.898Z,101135
2017-05-17T15:01:57.575Z,101122
2017-05-17T15:04:26.513Z,101120
2017-05-17T15:06:56.050Z,101114
2017-05-17T15:09:25.009Z,101115
2017-05-17T15:11:53.941Z,101113
2017-05-17T15:14:23.264Z,101099
2017-05-17T15:16:52.284Z,101104
2017-05-17T15:19:21.235Z,101101
2017-05-17T15:21:50.552Z,101089
2017-05-17T15:24:19.490Z,101086
2017-05-17T15:26:48.425Z,101081
2017-05-17T15:29:17.747Z,101091
2017-05-17T15:31:47.451Z,101085
2017-05-17T15:34:17.578Z,101085
2017-05-17T15:36:46.566Z,101072
2017-05-17T15:39:15.544Z,101075
2017-05-17T15:41:44.866Z,101073
2017-05-17T15:44:13.813Z,101083
2017-05-17T15:46:42.755Z,101068
2017-05-17T15:49:12.115Z,101071
2017-05-17T15:51:41.064Z,101066
2017-05-17T15:54:10.017Z,101064
2017-05-17T15:56:40.114Z,101056
2017-05-17T15:59:09.062Z,101053
2017-05-17T16:01:38.004Z,101047
2017-05-17T16:04:07.310Z,101055
2017-05-17T16:06:36.970Z,101050
2017-05-17T16:09:05.925Z,101042
2017-05-17T16:11:35.960Z,101047
2017-05-17T16:14:04.907Z,101029
2017-05-17T16:16:33.866Z,101028
2017-05-17T16:19:03.144Z,101022
2017-05-17T16:21:32.152Z,101019
2017-05-17T16:24:01.096Z,101023
2017-05-17T16:26:31.196Z,101020
2017-05-17T16:29:00.183Z,101021
2017-05-17T16:31:29.133Z,101019
2017-05-17T16:33:58.486Z,101019
2017-05-17T16:36:27.413Z,101014
2017-05-17T16:38:56.366Z,101017
2017-05-17T16:41:26.503Z,101020
2017-05-17T16:43:56.210Z,101012
2017-05-17T16:46:25.157Z,101008
2017-05-17T16:48:54.500Z,101005
2017-05-17T16:51:24.235Z,101010
2017-05-17T16:53:53.204Z,101006
2017-05-17T16:56:23.220Z,101007
2017-05-17T16:58:52.902Z,100999
2017-05-17T17:01:21.906Z,100996
2017-05-17T17:03:51.171Z,100989
2017-05-17T17:06:20.121Z,100990
2017-05-17T17:08:49.063Z,100986
2017-05-17T17:11:18.443Z,100999
2017-05-17T17:13:47.414Z,100991
2017-05-17T17:16:16.377Z,101003
2017-05-17T17:18:46.478Z,100995
2017-05-17T17:21:15.418Z,101001
2017-05-17T17:23:44.401Z,100989
2017-05-17T17:26:13.810Z,100982
2017-05-17T17:28:42.792Z,100985
2017-05-17T17:31:11.781Z,100974
2017-05-17T17:33:41.165Z,100963
2017-05-17T17:36:10.861Z,100966
2017-05-17T17:38:39.824Z,100971
2017-05-17T17:41:09.214Z,100954
2017-05-17T17:43:38.166Z,100953
2017-05-17T17:46:07.899Z,100944
2017-05-17T17:48:37.196Z,100929
2017-05-17T17:51:06.164Z,100935
2017-05-17T17:53:35.852Z,100939
2017-05-17T17:56:05.138Z,100932
2017-05-17T17:58:34.126Z,100932
2017-05-17T18:01:03.094Z,100934
2017-05-17T18:03:32.446Z,100925
2017-05-17T18:06:01.416Z,100930
2017-05-17T18:08:30.386Z,100923
2017-05-17T18:10:59.681Z,100916
2017-05-17T18:13:28.646Z,100911
2017-05-17T18:15:57.635Z,100923
2017-05-17T18:18:27.018Z,100918
2017-05-17T18:20:56.716Z,100927
2017-05-17T18:23:25.667Z,100920
2017-05-17T18:25:55.011Z,100920
2017-05-17T18:28:23.985Z,100908
2017-05-17T18:30:52.967Z,100903
2017-05-17T18:33:22.425Z,100913
2017-05-17T18:35:51.378Z,100919
2017-05-17T18:38:20.339Z,100907
2017-05-17T18:40:49.668Z,100906
2017-05-17T18:43:18.646Z,100897
2017-05-17T18:45:47.640Z,100901
2017-05-17T18:48:16.976Z,100906
2017-05-17T18:50:46.699Z,100905
2017-05-17T18:53:15.648Z,100899
2017-05-17T18:55:44.953Z,100899
2017-05-17T18:58:13.940Z,100903
2017-05-17T19:00:42.895Z,100895
2017-05-17T19:03:12.264Z,100888
2017-05-17T19:05:41.959Z,100894
2017-05-17T19:08:10.942Z,100901
2017-05-17T19:10:40.272Z,100899
2017-05-17T19:13:09.228Z,100897
2017-05-17T19:15:38.172Z,100886
2017-05-17T19:18:07.545Z,100882
2017-05-17T19:20:37.262Z,100884
2017-05-17T19:23:07.433Z,100889
2017-05-17T19:25:36.466Z,100884
2017-05-17T19:28:06.197Z,100891
2017-05-17T19:30:35.591Z,100882
2017-05-17T19:33:04.544Z,100877
2017-05-17T19:35:33.519Z,100877
2017-05-17T19:38:02.571Z,100875
2017-05-17T19:40:31.506Z,100884
2017-05-17T19:43:00.903Z,100879
2017-05-17T19:45:30.213Z,100888
2017-05-17T19:47:59.205Z,100871
2017-05-17T19:50:29.934Z,100872
2017-05-17T19:52:58.921Z,100870
2017-05-17T19:55:27.884Z,100871
2017-05-17T19:57:57.241Z,100871
2017-05-17T20:00:26.245Z,100870
2017-05-17T20:02:55.971Z,100877
2017-05-17T20:05:25.346Z,100871
2017-05-17T20:07:54.331Z,100865
2017-05-17T20:10:23.363Z,100863
2017-05-17T20:12:52.664Z,100855
2017-05-17T20:15:21.663Z,100862
2017-05-17T20:17:50.639Z,100856
2017-05-17T20:20:20.045Z,100848
2017-05-17T20:22:49.003Z,100850
2017-05-17T20:25:17.980Z,100848
2017-05-17T20:27:47.417Z,100843
2017-05-17T20:30:16.385Z,100843
2017-05-17T20:32:45.335Z,100835
2017-05-17T20:35:14.672Z,100824
2017-05-17T20:37:43.680Z,100826
2017-05-17T20:40:12.650Z,100830
2017-05-17T20:42:42.025Z,100824
2017-05-17T20:45:11.022Z,100818
2017-05-17T20:47:40.098Z,100820
2017-05-17T20:50:09.463Z,100822
2017-05-17T20:52:38.400Z,100821
2017-05-17T20:55:07.379Z,100815
2017-05-17T20:57:36.726Z,100804
2017-05-17T21:00:05.762Z,100814
2017-05-17T21:02:34.713Z,100804
2017-05-17T21:05:03.975Z,100804
2017-05-17T21:07:32.904Z,100811
2017-05-17T21:10:01.922Z,100804
2017-05-17T21:12:32.019Z,100805
2017-05-17T21:15:00.971Z,100791
2017-05-17T21:17:29.976Z,100795
2017-05-17T21:20:00.155Z,100797
2017-05-17T21:22:29.123Z,100793
2017-05-17T21:24:58.861Z,100792
2017-05-17T21:27:28.206Z,100795
2017-05-17T21:29:57.171Z,100786
2017-05-17T21:32:26.136Z,100780
2017-05-17T21:34:55.490Z,100785
2017-05-17T21:37:24.687Z,100774
2017-05-17T21:39:53.655Z,100779
2017-05-17T21:42:23.013Z,100764
2017-05-17T21:44:52.715Z,100770
2017-05-17T21:47:22.457Z,100761
2017-05-17T21:49:51.735Z,100759
2017-05-17T21:52:21.475Z,100755
2017-05-17T21:54:50.771Z,100748
2017-05-17T21:57:20.247Z,100744
2017-05-17T21:59:49.994Z,100741
2017-05-17T22:02:18.973Z,100742
2017-05-17T22:04:48.347Z,100737
2017-05-17T22:07:18.034Z,100741
2017-05-17T22:09:47.044Z,100733
2017-05-17T22:12:16.347Z,100725
2017-05-17T22:14:46.044Z,100723
2017-05-17T22:17:15.765Z,100718
2017-05-17T22:19:45.990Z,100719
2017-05-17T22:22:15.750Z,100709
2017-05-17T22:24:44.753Z,100713
2017-05-17T22:27:14.899Z,100718
2017-05-17T22:29:44.625Z,100715
2017-05-17T22:32:13.602Z,100706
2017-05-17T22:34:43.783Z,100704
2017-05-17T22:37:16.199Z,100706
2017-05-17T22:39:49.166Z,100703
2017-05-17T22:42:18.150Z,100701
2017-05-17T22:44:47.288Z,100706
2017-05-17T22:47:16.653Z,100698
2017-05-17T22:49:45.623Z,100704
2017-05-17T22:52:14.582Z,100694
2017-05-17T22:54:43.935Z,100709
2017-05-17T22:57:12.891Z,100699
2017-05-17T22:59:41.859Z,100701
2017-05-17T23:02:11.227Z,100698
2017-05-17T23:04:40.171Z,100699
2017-05-17T23:07:09.147Z,100690
2017-05-17T23:09:38.553Z,100677
2017-05-17T23:12:07.521Z,100688
2017-05-17T23:14:36.452Z,100682
2017-05-17T23:17:05.804Z,100677
2017-05-17T23:19:35.483Z,100672
2017-05-17T23:22:04.415Z,100673
2017-05-17T23:24:34.505Z,100682
2017-05-17T23:27:03.472Z,100675
2017-05-17T23:29:32.426Z,100668
2017-05-17T23:32:03.232Z,100665
2017-05-17T23:34:33.130Z,100672
2017-05-17T23:37:02.886Z,100660
2017-05-17T23:39:32.291Z,100661
2017-05-17T23:42:01.240Z,100663
2017-05-17T23:44:30.192Z,100660
2017-05-17T23:46:59.533Z,100655
2017-05-17T23:49:28.536Z,100653
2017-05-17T23:51:58.235Z,100652
2017-05-17T23:54:27.500Z,100645
2017-05-17T23:56:56.444Z,100649
2017-05-17T23:59:26.101Z,100638
